createdAt,value
2023-10-19T00:03:34.491Z,14.60
2023-10-19T00:08:26.408Z,14.00
2023-10-19T00:13:20.415Z,13.93
2023-10-19T00:18:21.957Z,14.15
2023-10-19T00:23:25.632Z,13.82
2023-10-19T00:28:18.530Z,14.70
2023-10-19T00:33:21.342Z,14.77
2023-10-19T00:38:39.212Z,15.27
2023-10-19T00:43:35.495Z,15.98
2023-10-19T00:48:28.490Z,15.65
2023-10-19T00:53:20.346Z,15.75
2023-10-19T00:58:18.735Z,15.85
2023-10-19T01:03:18.316Z,16.13
2023-10-19T01:08:27.734Z,17.08
2023-10-19T01:13:28.569Z,17.00
2023-10-19T01:18:21.085Z,18.50
2023-10-19T01:23:27.618Z,17.58
2023-10-19T01:28:19.518Z,17.63
2023-10-19T01:33:16.697Z,17.35
2023-10-19T01:38:09.541Z,17.55
2023-10-19T01:43:01.278Z,16.67
2023-10-19T01:47:53.122Z,16.48
2023-10-19T01:52:45.799Z,16.38
2023-10-19T01:57:37.551Z,17.25
2023-10-19T02:02:30.133Z,15.88
2023-10-19T02:07:24.496Z,16.10
2023-10-19T02:12:18.926Z,15.90
2023-10-19T02:17:11.065Z,16.25
2023-10-19T02:22:12.969Z,15.45
2023-10-19T02:27:07.415Z,16.20
2023-10-19T02:32:05.141Z,16.05
2023-10-19T02:36:56.820Z,15.00
2023-10-19T02:41:50.104Z,15.70
2023-10-19T02:46:43.289Z,14.43
2023-10-19T02:51:35.084Z,15.38
2023-10-19T02:56:28.152Z,14.85
2023-10-19T03:01:23.064Z,14.52
2023-10-19T03:06:14.980Z,15.05
2023-10-19T03:11:08.219Z,13.50
2023-10-19T03:16:08.597Z,13.88
2023-10-19T03:21:02.607Z,13.13
2023-10-19T03:26:14.532Z,12.82
2023-10-19T03:31:06.211Z,13.80
2023-10-19T03:35:57.963Z,12.85
2023-10-19T03:40:53.618Z,13.93
2023-10-19T03:45:53.675Z,13.00
2023-10-19T03:50:49.083Z,12.93
2023-10-19T03:55:44.467Z,14.43
2023-10-19T04:00:36.290Z,13.77
2023-10-19T04:05:29.566Z,13.73
2023-10-19T04:10:31.720Z,14.63
2023-10-19T04:15:23.681Z,14.63
2023-10-19T04:20:17.771Z,14.13
2023-10-19T04:25:13.664Z,14.25
2023-10-19T04:30:06.100Z,13.90
2023-10-19T04:34:59.979Z,14.27
2023-10-19T04:39:51.917Z,14.20
2023-10-19T04:44:43.631Z,15.75
2023-10-19T04:49:35.395Z,14.07
2023-10-19T04:54:27.118Z,14.52
2023-10-19T04:59:18.773Z,15.10
2023-10-19T05:04:10.567Z,14.98
2023-10-19T05:09:04.346Z,14.95
2023-10-19T05:13:56.157Z,15.73
2023-10-19T05:18:47.830Z,14.68
2023-10-19T05:23:39.581Z,14.45
2023-10-19T05:28:32.001Z,13.63
2023-10-19T05:33:24.904Z,16.95
2023-10-19T05:38:17.101Z,15.45
2023-10-19T05:43:08.934Z,16.95
2023-10-19T05:48:01.367Z,15.68
2023-10-19T05:52:54.404Z,15.52
2023-10-19T05:57:48.680Z,15.57
2023-10-19T06:02:47.643Z,14.63
2023-10-19T06:07:39.389Z,15.35
2023-10-19T06:12:35.653Z,15.38
2023-10-19T06:17:28.296Z,15.63
2023-10-19T06:22:20.118Z,13.95
2023-10-19T06:27:11.908Z,16.08
2023-10-19T06:32:03.796Z,14.88
2023-10-19T06:36:55.714Z,14.10
2023-10-19T06:41:48.028Z,15.02
2023-10-19T06:46:40.700Z,19.58
2023-10-19T06:51:34.509Z,18.80
2023-10-19T06:56:27.415Z,17.83
2023-10-19T07:01:19.999Z,16.67
2023-10-19T07:06:15.302Z,15.23
2023-10-19T07:11:07.272Z,15.57
2023-10-19T07:15:59.956Z,23.35
2023-10-19T07:20:54.336Z,17.55
2023-10-19T07:25:49.137Z,14.57
2023-10-19T07:30:42.804Z,16.27
2023-10-19T07:35:40.705Z,15.55
2023-10-19T07:40:33.313Z,16.13
2023-10-19T07:45:26.698Z,16.92
2023-10-19T07:50:18.645Z,17.38
2023-10-19T07:55:11.214Z,17.98
2023-10-19T08:00:06.160Z,17.95
2023-10-19T08:04:58.224Z,17.80
2023-10-19T08:09:49.947Z,21.75
2023-10-19T08:14:43.579Z,17.10
2023-10-19T08:19:35.418Z,16.67
2023-10-19T08:24:30.184Z,16.67
2023-10-19T08:29:22.668Z,16.70
2023-10-19T08:34:14.601Z,16.67
2023-10-19T08:39:07.515Z,16.83
2023-10-19T08:43:59.391Z,17.42
2023-10-19T08:48:51.220Z,16.38
2023-10-19T08:53:45.350Z,16.63
2023-10-19T08:58:37.166Z,16.67
2023-10-19T09:03:30.343Z,15.35
2023-10-19T09:08:23.840Z,15.00
2023-10-19T09:13:19.831Z,15.00
2023-10-19T09:18:23.607Z,15.60
2023-10-19T09:23:15.334Z,14.55
2023-10-19T09:28:07.805Z,15.23
2023-10-19T09:33:01.171Z,14.63
2023-10-19T09:37:55.256Z,13.70
2023-10-19T09:42:51.480Z,13.77
2023-10-19T09:47:51.147Z,15.02
2023-10-19T09:52:43.591Z,14.50
2023-10-19T09:57:50.258Z,14.32
2023-10-19T10:02:47.585Z,12.77
2023-10-19T10:07:42.465Z,14.13
2023-10-19T10:12:36.232Z,14.18
2023-10-19T10:17:28.882Z,13.48
2023-10-19T10:22:22.599Z,14.18
2023-10-19T10:27:20.878Z,13.13
2023-10-19T10:32:13.484Z,14.13
2023-10-19T10:37:09.234Z,13.23
2023-10-19T10:42:04.231Z,13.18
2023-10-19T10:46:56.054Z,13.00
2023-10-19T10:51:47.805Z,13.00
2023-10-19T10:56:42.801Z,12.65
2023-10-19T11:01:35.006Z,12.10
2023-10-19T11:06:26.858Z,13.15
2023-10-19T11:11:18.537Z,12.50
2023-10-19T11:16:10.822Z,12.75
2023-10-19T11:21:13.222Z,12.90
2023-10-19T11:26:06.425Z,11.77
2023-10-19T11:31:15.334Z,11.43
2023-10-19T11:36:07.465Z,11.20
2023-10-19T11:40:59.210Z,11.82
2023-10-19T11:45:51.135Z,11.77
2023-10-19T11:50:43.057Z,10.98
2023-10-19T11:55:34.768Z,13.52
2023-10-19T12:00:35.171Z,10.98
2023-10-19T12:05:27.157Z,10.32
2023-10-19T12:10:21.649Z,11.98
2023-10-19T12:15:16.340Z,10.70
2023-10-19T12:20:08.572Z,10.60
2023-10-19T12:25:00.589Z,10.77
2023-10-19T12:29:55.604Z,10.90
2023-10-19T12:34:47.453Z,12.80
2023-10-19T12:40:00.154Z,10.27
2023-10-19T12:44:52.330Z,10.77
2023-10-19T12:49:46.412Z,12.95
2023-10-19T12:54:39.191Z,12.68
2023-10-19T12:59:31.529Z,10.57
2023-10-19T13:04:25.277Z,10.27
2023-10-19T13:09:23.182Z,10.48
2023-10-19T13:14:15.237Z,9.60
2023-10-19T13:19:17.218Z,9.73
2023-10-19T13:24:10.195Z,10.10
2023-10-19T13:29:02.735Z,10.20
2023-10-19T13:33:55.817Z,9.45
2023-10-19T13:38:47.539Z,10.45
2023-10-19T13:43:43.757Z,9.60
2023-10-19T13:48:36.634Z,10.57
2023-10-19T13:53:28.815Z,11.15
2023-10-19T13:58:20.632Z,10.52
2023-10-19T14:03:15.369Z,16.88
2023-10-19T14:08:08.148Z,16.65
2023-10-19T14:13:00.138Z,10.23
2023-10-19T14:17:52.495Z,9.95
2023-10-19T14:22:47.160Z,12.77
2023-10-19T14:27:49.812Z,11.02
2023-10-19T14:32:43.334Z,10.18
2023-10-19T14:37:35.161Z,11.20
2023-10-19T14:42:26.953Z,11.55
2023-10-19T14:47:18.829Z,10.00
2023-10-19T14:52:11.166Z,10.05
2023-10-19T14:57:02.965Z,11.18
2023-10-19T15:01:56.385Z,10.63
2023-10-19T15:06:50.333Z,10.90
2023-10-19T15:11:42.031Z,10.02
2023-10-19T15:16:33.726Z,10.23
2023-10-19T15:21:25.435Z,11.27
2023-10-19T15:26:19.987Z,9.48
2023-10-19T15:31:12.125Z,13.52
2023-10-19T15:36:04.068Z,10.35
2023-10-19T15:40:55.963Z,11.77
2023-10-19T15:45:50.714Z,9.93
2023-10-19T15:50:42.787Z,10.45
2023-10-19T15:55:34.560Z,10.05
2023-10-19T16:00:26.453Z,10.05
2023-10-19T16:05:19.185Z,10.20
2023-10-19T16:10:11.732Z,9.55
2023-10-19T16:15:03.814Z,11.57
2023-10-19T16:19:55.813Z,10.70
2023-10-19T16:24:47.608Z,10.02
2023-10-19T16:29:40.111Z,20.10
2023-10-19T16:34:32.113Z,20.00
2023-10-19T16:39:24.088Z,31.65
2023-10-19T16:44:17.238Z,15.68
2023-10-19T16:49:09.584Z,17.15
2023-10-19T16:54:01.243Z,16.75
2023-10-19T16:58:53.056Z,22.85
2023-10-19T17:03:46.003Z,18.88
2023-10-19T17:08:38.008Z,19.58
2023-10-19T17:13:30.594Z,20.63
2023-10-19T17:18:22.463Z,21.20
2023-10-19T17:23:14.388Z,21.10
2023-10-19T17:28:07.717Z,22.95
2023-10-19T17:33:10.211Z,22.65
2023-10-19T17:38:04.095Z,24.75
2023-10-19T17:42:55.855Z,25.08
2023-10-19T17:47:48.290Z,23.30
2023-10-19T17:52:40.202Z,27.15
2023-10-19T17:57:36.038Z,22.92
2023-10-19T18:02:28.341Z,23.80
2023-10-19T18:07:21.157Z,25.67
2023-10-19T18:12:13.605Z,24.52
2023-10-19T18:17:10.516Z,25.90
2023-10-19T18:22:02.456Z,24.40
2023-10-19T18:26:54.721Z,24.52
2023-10-19T18:31:46.578Z,23.88
2023-10-19T18:36:46.907Z,24.08
2023-10-19T18:41:42.767Z,26.70
2023-10-19T18:46:37.203Z,22.33
2023-10-19T18:51:29.185Z,33.10
2023-10-19T18:56:20.944Z,27.83
2023-10-19T19:01:12.909Z,32.38
2023-10-19T19:06:05.760Z,27.35
2023-10-19T19:10:58.853Z,27.02
2023-10-19T19:15:51.961Z,27.45
2023-10-19T19:20:44.323Z,27.02
2023-10-19T19:25:36.670Z,25.15
2023-10-19T19:30:28.731Z,23.00
2023-10-19T19:35:20.911Z,22.05
2023-10-19T19:40:15.929Z,21.60
2023-10-19T19:45:08.128Z,22.20
2023-10-19T19:49:59.845Z,23.70
2023-10-19T19:54:54.509Z,23.23
2023-10-19T19:59:46.882Z,22.95
2023-10-19T20:04:39.510Z,22.60
2023-10-19T20:09:32.069Z,26.27
2023-10-19T20:14:24.218Z,22.63
2023-10-19T20:19:17.383Z,21.55
2023-10-19T20:24:09.248Z,22.60
2023-10-19T20:29:02.171Z,22.05
2023-10-19T20:33:53.941Z,22.85
2023-10-19T20:38:45.849Z,25.15
2023-10-19T20:43:43.833Z,24.10
2023-10-19T20:48:35.926Z,22.83
2023-10-19T20:53:27.715Z,22.70
2023-10-19T20:58:23.868Z,22.10
2023-10-19T21:03:16.526Z,21.63
2023-10-19T21:08:08.354Z,22.10
2023-10-19T21:13:01.498Z,21.42
2023-10-19T21:17:53.339Z,23.48
2023-10-19T21:22:47.401Z,21.33
2023-10-19T21:27:40.770Z,24.13
2023-10-19T21:32:34.433Z,23.98
2023-10-19T21:37:27.346Z,22.00
2023-10-19T21:42:19.297Z,22.05
2023-10-19T21:47:12.644Z,23.58
2023-10-19T21:52:04.865Z,22.92
2023-10-19T21:56:56.715Z,23.48
2023-10-19T22:01:48.410Z,23.33
2023-10-19T22:06:40.222Z,22.10
2023-10-19T22:11:35.219Z,21.35
2023-10-19T22:16:27.063Z,21.85
2023-10-19T22:21:18.858Z,22.08
2023-10-19T22:26:12.533Z,21.38
2023-10-19T22:31:04.823Z,21.42
2023-10-19T22:35:56.508Z,22.75
2023-10-19T22:40:48.686Z,25.50
2023-10-19T22:45:40.464Z,25.63
2023-10-19T22:50:34.451Z,24.90
2023-10-19T22:55:26.313Z,24.63
2023-10-19T23:00:18.538Z,24.85
2023-10-19T23:05:12.285Z,24.38
2023-10-19T23:10:07.056Z,27.67
2023-10-19T23:15:00.998Z,33.80
2023-10-19T23:19:57.956Z,32.72
2023-10-19T23:24:52.570Z,32.40
2023-10-19T23:29:46.600Z,30.55
2023-10-19T23:34:38.259Z,33.63
2023-10-19T23:39:34.387Z,33.15
2023-10-19T23:44:30.888Z,36.47
2023-10-19T23:49:22.872Z,31.98
2023-10-19T23:54:14.711Z,32.90
2023-10-19T23:59:07.806Z,32.85
